OKBK METAR : OKBK 160000Z 36009KT CAVOK 38/11 Q0995 NOSIG